Time;durP1;ratioP1;P1;durP2;ratioP2;P2;SDS_P1;SDS_P2;PMS_P1;PMS_P2;Temp;Humidity;BMP_temperature;BMP_pressure;BME280_temperature;BME280_humidity;BME280_pressure;Samples;Min_cycle;Max_cycle;Signal;HPM_P1;HPM_P2
2022/04/06 00:01:26;;;;;;;4.65;1.45;;;;;;;4.17;61.59;99671.22;5017635;28;20052;-55
2022/04/06 00:03:58;;;;;;;13.32;1.20;;;;;;;4.09;59.95;99683.25;5012298;28;20065;-57
2022/04/06 00:06:29;;;;;;;3.05;1.40;;;;;;;3.93;59.48;99691.88;5022834;28;20049;-56
2022/04/06 00:09:18;;;;;;;3.55;1.63;;;;;;;3.72;59.63;99698.72;5022650;28;20061;-54
2022/04/06 00:11:49;;;;;;;3.47;1.52;;;;;;;3.68;58.44;99691.81;5022746;28;20336;-57
2022/04/06 00:14:21;;;;;;;3.33;1.15;;;;;;;3.74;58.64;99681.47;5022750;28;20053;-56
2022/04/06 00:16:51;;;;;;;5.07;1.80;;;;;;;3.77;58.01;99691.84;5026689;28;20316;-54
2022/04/06 00:19:23;;;;;;;3.50;1.50;;;;;;;3.81;57.81;99683.22;5026124;28;20118;-55
2022/04/06 00:21:54;;;;;;;5.60;1.52;;;;;;;3.80;57.37;99671.16;5026908;28;20133;-55
2022/04/06 00:24:25;;;;;;;4.35;1.73;;;;;;;3.91;58.90;99683.25;5026402;28;20053;-53
2022/04/06 00:26:56;;;;;;;2.38;1.50;;;;;;;4.05;58.18;99686.72;5026352;28;20052;-54
2022/04/06 00:29:26;;;;;;;2.45;1.33;;;;;;;4.25;58.01;99682.41;5026741;28;20232;-55
2022/04/06 00:31:57;;;;;;;2.05;1.38;;;;;;;4.51;57.88;99681.53;5026465;28;20124;-54
2022/04/06 00:37:17;;;;;;;2.60;1.63;;;;;;;4.67;57.04;99697.91;5026186;28;20098;-56
2022/04/06 00:39:51;;;;;;;1.73;1.30;;;;;;;4.61;56.50;99688.41;5026265;28;20364;-51
2022/04/06 00:42:21;;;;;;;2.80;1.33;;;;;;;4.33;55.73;99703.94;5025876;28;20061;-55
2022/04/06 00:44:52;;;;;;;2.42;1.33;;;;;;;4.28;56.87;99713.44;5026142;28;20171;-53
2022/04/06 00:47:23;;;;;;;2.90;1.73;;;;;;;4.17;57.67;99722.91;5026107;28;20421;-54
2022/04/06 00:49:55;;;;;;;3.78;1.40;;;;;;;4.13;57.04;99728.09;5026328;28;20068;-55
2022/04/06 00:52:26;;;;;;;6.03;1.50;;;;;;;4.06;57.11;99727.19;5026526;28;20049;-55
2022/04/06 00:54:57;;;;;;;2.45;1.60;;;;;;;4.10;57.63;99721.19;5026345;28;20053;-53
2022/04/06 00:57:28;;;;;;;4.25;1.60;;;;;;;3.98;57.98;99705.66;5026170;28;20240;-55
2022/04/06 00:59:59;;;;;;;3.00;1.40;;;;;;;3.92;58.03;99695.28;5025910;28;20056;-55
2022/04/06 01:02:29;;;;;;;2.53;1.45;;;;;;;4.17;58.88;99738.44;5025866;28;20057;-54
2022/04/06 01:05:02;;;;;;;4.80;1.60;;;;;;;4.10;58.38;99728.94;5023365;28;20084;-55
2022/04/06 01:07:34;;;;;;;4.68;1.40;;;;;;;4.02;55.38;99728.03;5025642;28;20088;-56
2022/04/06 01:10:05;;;;;;;2.40;1.40;;;;;;;4.00;55.55;99714.28;5025800;28;20128;-53
2022/04/06 01:12:38;;;;;;;3.33;1.70;;;;;;;4.13;54.54;99695.31;5025806;28;20125;-55
2022/04/06 01:15:10;;;;;;;5.18;1.67;;;;;;;4.31;54.02;99731.53;5025323;28;20382;-53
2022/04/06 01:17:41;;;;;;;5.35;1.90;;;;;;;4.39;54.42;99733.25;5025698;28;20059;-55
2022/04/06 01:20:15;;;;;;;3.45;1.70;;;;;;;4.36;53.05;99720.34;5025413;28;20049;-54
2022/04/06 01:22:47;;;;;;;5.15;1.70;;;;;;;4.55;52.05;99750.53;5025479;28;20089;-54
2022/04/06 01:25:18;;;;;;;3.20;1.73;;;;;;;4.65;52.65;99746.22;5025142;28;20149;-53
2022/04/06 01:27:49;;;;;;;4.95;1.70;;;;;;;4.71;52.62;99731.50;5025433;28;20284;-53
2022/04/06 01:30:20;;;;;;;7.55;2.28;;;;;;;4.89;51.21;99729.75;5025444;28;20403;-53
2022/04/06 01:32:50;;;;;;;7.47;2.40;;;;;;;4.88;51.20;99722.88;5025511;28;20060;-53
2022/04/06 01:35:21;;;;;;;3.72;1.98;;;;;;;5.00;50.34;99732.34;5025915;28;20134;-56
2022/04/06 01:37:54;;;;;;;3.30;1.88;;;;;;;5.09;50.29;99728.03;5024836;28;20096;-54
2022/04/06 01:40:27;;;;;;;6.60;2.40;;;;;;;5.21;50.46;99727.09;5025368;28;20272;-55
2022/04/06 01:42:58;;;;;;;3.67;1.77;;;;;;;5.36;49.86;99705.47;5025080;28;20066;-53
2022/04/06 01:45:29;;;;;;;6.50;1.98;;;;;;;5.70;49.28;99711.34;5024714;28;20149;-56
2022/04/06 01:48:00;;;;;;;1.92;1.25;;;;;;;5.87;49.29;99703.47;5025005;28;20087;-55
2022/04/06 01:53:19;;;;;;;5.22;2.08;;;;;;;6.14;47.32;99689.50;5024689;28;20076;-55
2022/04/06 01:55:50;;;;;;;5.32;1.67;;;;;;;6.66;46.89;99698.56;5024437;28;20061;-55
2022/04/06 01:58:21;;;;;;;4.20;1.55;;;;;;;7.08;46.60;99693.78;5024902;28;20235;-52
2022/04/06 02:00:53;;;;;;;6.70;1.90;;;;;;;7.18;44.55;99653.84;5024497;28;20050;-54
2022/04/06 02:03:24;;;;;;;6.97;1.98;;;;;;;7.52;44.45;99687.22;5024808;28;20301;-55
2022/04/06 02:05:55;;;;;;;4.93;1.83;;;;;;;7.44;42.80;99676.03;5024819;28;20072;-55
2022/04/06 02:08:28;;;;;;;5.13;1.95;;;;;;;7.44;43.39;99694.22;5024768;28;20299;-55
2022/04/06 02:10:58;;;;;;;6.35;1.80;;;;;;;7.40;43.08;99684.75;5024445;28;20061;-54
2022/04/06 02:13:29;;;;;;;4.07;1.60;;;;;;;6.92;42.21;99687.91;5024375;28;20088;-56
2022/04/06 02:16:00;;;;;;;4.07;1.65;;;;;;;6.11;41.94;99654.91;5022925;28;20248;-54
2022/04/06 02:18:31;;;;;;;5.85;2.75;;;;;;;6.34;41.58;99707.50;5024170;28;20128;-54
2022/04/06 02:21:01;;;;;;;9.18;3.00;;;;;;;6.23;41.77;99704.97;5024695;28;20826;-53
2022/04/06 02:23:34;;;;;;;9.05;3.42;;;;;;;6.13;41.47;99715.44;5024303;28;20091;-56
2022/04/06 02:26:04;;;;;;;7.80;3.75;;;;;;;6.21;41.74;99724.00;5024276;28;20120;-56
2022/04/06 02:28:35;;;;;;;18.27;3.55;;;;;;;6.34;41.09;99736.06;5024236;28;20063;-55
2022/04/06 02:31:05;;;;;;;3.70;1.83;;;;;;;6.31;40.69;99746.44;5024161;28;20084;-54
2022/04/06 02:33:37;;;;;;;9.80;2.30;;;;;;;6.24;38.96;99726.59;5023930;28;20065;-55
2022/04/06 02:36:08;;;;;;;12.07;2.50;;;;;;;6.03;40.42;99741.44;5023259;28;20060;-54
2022/04/06 02:38:41;;;;;;;7.18;2.38;;;;;;;5.98;37.51;99732.81;5023331;28;20820;-53
2022/04/06 02:41:12;;;;;;;5.57;2.08;;;;;;;5.79;38.75;99736.34;5024239;28;20054;-57
2022/04/06 02:43:43;;;;;;;5.82;2.10;;;;;;;5.90;38.20;99728.53;5024097;28;20057;-56
2022/04/06 02:46:13;;;;;;;4.43;1.90;;;;;;;5.97;39.35;99741.47;5023911;28;20116;-53
2022/04/06 02:48:45;;;;;;;4.75;1.80;;;;;;;6.11;39.99;99743.13;5022700;28;20073;-54
2022/04/06 02:51:15;;;;;;;4.60;1.77;;;;;;;6.21;38.92;99744.78;5021855;28;20067;-52
2022/04/06 02:53:48;;;;;;;5.25;2.20;;;;;;;6.12;37.26;99747.44;5023724;28;20049;-53
2022/04/06 02:56:18;;;;;;;5.32;1.50;;;;;;;5.99;37.80;99734.56;5022679;28;20048;-52
2022/04/06 02:58:49;;;;;;;3.47;1.50;;;;;;;5.97;37.12;99746.66;5024382;28;20236;-54
2022/04/06 03:01:20;;;;;;;4.22;2.15;;;;;;;5.95;37.13;99743.22;5024249;28;20046;-52
2022/04/06 03:03:51;;;;;;;5.80;1.70;;;;;;;5.87;37.28;99739.78;5023489;28;20052;-52
2022/04/06 03:06:21;;;;;;;5.57;1.77;;;;;;;5.95;38.40;99738.03;5024816;28;20060;-54
2022/04/06 03:08:54;;;;;;;3.05;1.60;;;;;;;5.92;38.58;99738.03;5023980;28;20053;-55
2022/04/06 03:11:24;;;;;;;4.10;1.67;;;;;;;5.60;38.20;99736.44;5023097;28;20045;-53
2022/04/06 03:13:55;;;;;;;5.97;1.70;;;;;;;5.22;38.96;99696.88;5024939;28;20053;-53
2022/04/06 03:16:26;;;;;;;8.32;1.88;;;;;;;5.49;39.65;99735.66;5023335;28;20087;-54
2022/04/06 03:18:57;;;;;;;4.82;1.75;;;;;;;5.37;40.67;99728.78;5024179;28;20428;-54
2022/04/06 03:21:27;;;;;;;4.75;1.88;;;;;;;5.51;40.75;99733.03;5023518;28;20050;-53
2022/04/06 03:24:00;;;;;;;8.40;2.30;;;;;;;5.59;39.03;99739.91;5023358;28;20129;-55
2022/04/06 03:26:30;;;;;;;2.40;1.50;;;;;;;5.63;37.32;99731.25;5023515;28;20076;-54
2022/04/06 03:29:01;;;;;;;7.13;2.20;;;;;;;5.66;37.98;99734.69;5023238;28;20340;-54
2022/04/06 03:31:32;;;;;;;7.15;1.80;;;;;;;5.47;36.23;99745.16;5023139;28;20042;-54
2022/04/06 03:34:02;;;;;;;4.85;2.08;;;;;;;5.50;38.25;99750.31;5022661;28;20287;-55
2022/04/06 03:36:33;;;;;;;4.13;1.75;;;;;;;5.36;36.74;99726.19;5023784;28;20054;-52
2022/04/06 03:39:05;;;;;;;3.28;1.50;;;;;;;5.44;36.91;99745.16;5022988;28;20050;-53
2022/04/06 03:41:36;;;;;;;8.93;1.90;;;;;;;5.58;38.57;99753.72;5022974;28;20076;-56
2022/04/06 03:44:07;;;;;;;6.03;1.80;;;;;;;4.83;39.63;99653.00;5023261;28;20080;-56
2022/04/06 03:46:38;;;;;;;2.60;1.73;;;;;;;4.82;40.00;99655.56;5023179;28;20060;-55
2022/04/06 03:49:10;;;;;;;3.78;1.60;;;;;;;5.54;38.61;99767.59;5025369;28;20176;-55
2022/04/06 03:51:41;;;;;;;3.33;1.75;;;;;;;5.60;38.58;99764.97;5028146;28;20056;-58
2022/04/06 03:54:13;;;;;;;6.63;1.80;;;;;;;5.41;36.37;99761.56;5027870;28;20050;-55
2022/04/06 03:56:44;;;;;;;6.65;2.10;;;;;;;5.30;38.07;99767.66;5028076;28;20085;-57
2022/04/06 03:59:15;;;;;;;3.05;1.60;;;;;;;5.24;37.40;99757.31;5027709;28;20377;-56
2022/04/06 04:01:45;;;;;;;5.95;2.47;;;;;;;5.16;39.08;99760.78;5027505;28;20050;-58
2022/04/06 04:04:16;;;;;;;6.95;1.38;;;;;;;5.08;38.81;99767.72;5027485;28;20339;-56
2022/04/06 04:06:47;;;;;;;3.42;1.60;;;;;;;5.00;36.59;99753.94;5027791;28;20981;-55
2022/04/06 04:09:19;;;;;;;5.65;1.88;;;;;;;4.95;37.90;99763.44;5027834;28;20339;-55
2022/04/06 04:11:56;;;;;;;7.35;1.80;;;;;;;4.92;38.81;99755.69;5027483;28;20219;-58
2022/04/06 04:14:27;;;;;;;5.95;1.63;;;;;;;5.20;38.18;99761.66;5027799;28;20348;-57
2022/04/06 04:17:04;;;;;;;4.43;1.90;;;;;;;5.32;38.61;99760.75;5027225;28;20068;-57
2022/04/06 04:19:34;;;;;;;5.47;2.10;;;;;;;5.50;40.67;99755.50;5027147;28;20045;-57
2022/04/06 04:22:06;;;;;;;5.68;1.65;;;;;;;5.66;38.05;99765.81;5027476;28;20045;-56
2022/04/06 04:24:38;;;;;;;5.65;2.13;;;;;;;5.63;39.07;99771.84;5027447;28;20117;-53
2022/04/06 04:27:09;;;;;;;5.57;2.45;;;;;;;5.08;39.17;99668.44;5027430;28;20061;-50
2022/04/06 04:29:39;;;;;;;3.17;1.60;;;;;;;5.61;39.09;99764.06;5027233;28;20096;-54
2022/04/06 04:32:11;;;;;;;2.63;1.42;;;;;;;5.68;38.33;99769.25;5027246;28;20178;-52
2022/04/06 04:34:42;;;;;;;3.42;1.40;;;;;;;5.42;38.09;99767.63;5027055;28;20046;-50
2022/04/06 04:37:13;;;;;;;4.82;1.95;;;;;;;5.38;38.83;99755.53;5027113;28;20049;-55
2022/04/06 04:39:45;;;;;;;4.20;1.60;;;;;;;5.55;38.29;99778.81;5027050;28;20403;-53
2022/04/06 04:42:16;;;;;;;5.20;1.90;;;;;;;5.54;39.34;99771.88;5027043;28;20075;-52
2022/04/06 04:44:46;;;;;;;5.35;1.73;;;;;;;5.49;37.62;99784.88;5026729;28;20117;-53
2022/04/06 04:47:17;;;;;;;3.17;1.42;;;;;;;5.47;38.93;99786.63;5026745;28;20241;-54
2022/04/06 04:49:48;;;;;;;9.00;1.70;;;;;;;5.45;36.93;99785.75;5027298;28;21033;-54
2022/04/06 04:52:19;;;;;;;3.47;1.48;;;;;;;5.44;37.44;99802.16;5026847;28;20461;-52
2022/04/06 04:54:51;;;;;;;4.28;1.50;;;;;;;5.26;36.66;99784.06;5026705;28;20125;-52
2022/04/06 04:57:22;;;;;;;7.95;2.00;;;;;;;5.35;38.25;99787.50;5026827;28;20325;-53
2022/04/06 04:59:52;;;;;;;3.25;1.50;;;;;;;5.47;37.05;99786.63;5026394;28;20340;-52
2022/04/06 05:02:23;;;;;;;4.45;1.67;;;;;;;5.52;37.27;99777.09;5016224;28;20070;-54
2022/04/06 05:04:54;;;;;;;7.22;1.70;;;;;;;5.72;37.49;99781.34;5026770;28;20070;-54
2022/04/06 05:07:24;;;;;;;2.97;1.50;;;;;;;5.72;36.68;99776.16;5026666;28;20229;-54
2022/04/06 05:09:57;;;;;;;4.50;1.88;;;;;;;5.80;36.99;99776.97;5026795;28;20046;-53
2022/04/06 05:12:28;;;;;;;7.82;2.28;;;;;;;5.52;36.04;99769.31;5026862;28;20076;-52
2022/04/06 05:14:59;;;;;;;3.78;1.65;;;;;;;5.44;37.42;99788.34;5017173;28;20056;-54
2022/04/06 05:17:30;;;;;;;5.15;1.60;;;;;;;5.19;38.63;99786.69;5026548;28;20053;-52
2022/04/06 05:20:00;;;;;;;5.93;1.70;;;;;;;4.72;39.59;99795.38;5026146;28;20050;-54
2022/04/06 05:22:31;;;;;;;7.00;2.38;;;;;;;4.72;39.11;99795.38;5025629;28;20052;-53
2022/04/06 05:25:04;;;;;;;2.45;1.58;;;;;;;4.76;38.21;99760.84;5026149;28;20455;-56
2022/04/06 05:27:35;;;;;;;5.15;1.77;;;;;;;5.02;37.85;99788.44;5026078;28;20092;-53
2022/04/06 05:30:06;;;;;;;4.38;1.58;;;;;;;4.88;37.54;99805.72;5025897;28;20046;-52
2022/04/06 05:32:37;;;;;;;4.93;1.83;;;;;;;4.70;37.14;99784.16;5025588;28;20046;-55
2022/04/06 05:35:09;;;;;;;4.65;1.70;;;;;;;4.46;38.41;99782.41;5025364;28;20077;-53
2022/04/06 05:37:41;;;;;;;6.00;1.50;;;;;;;4.53;38.50;99788.47;5024294;28;20138;-51
2022/04/06 05:40:15;;;;;;;7.18;1.75;;;;;;;4.46;38.94;99786.72;5025205;28;20064;-53
2022/04/06 05:42:46;;;;;;;5.85;1.65;;;;;;;4.51;39.37;99766.91;5025525;28;20077;-53
2022/04/06 05:45:17;;;;;;;4.03;1.50;;;;;;;4.45;38.67;99751.38;5025615;28;20077;-53
2022/04/06 05:47:48;;;;;;;3.10;1.63;;;;;;;4.65;39.34;99785.88;5025592;28;20046;-54
2022/04/06 05:50:19;;;;;;;8.70;1.83;;;;;;;4.88;39.51;99790.19;5025604;28;20076;-54
2022/04/06 05:52:50;;;;;;;2.83;1.70;;;;;;;4.56;39.17;99766.91;5025749;28;20053;-54
2022/04/06 05:55:22;;;;;;;6.90;1.75;;;;;;;4.67;38.14;99789.34;5025374;28;20069;-54
2022/04/06 05:57:53;;;;;;;4.40;1.58;;;;;;;4.79;39.58;99790.19;5023326;28;20424;-53
2022/04/06 06:00:24;;;;;;;3.67;1.98;;;;;;;4.87;39.52;99798.81;5025245;28;20057;-55
2022/04/06 06:02:54;;;;;;;4.80;1.38;;;;;;;5.10;38.67;99791.88;5026091;28;20100;-53
2022/04/06 06:05:25;;;;;;;3.22;1.50;;;;;;;5.24;39.06;99789.28;5023964;28;20053;-55
2022/04/06 06:07:56;;;;;;;5.07;1.63;;;;;;;5.35;39.77;99786.66;5024867;28;20336;-52
2022/04/06 06:10:28;;;;;;;6.38;1.40;;;;;;;5.36;39.65;99783.19;5025168;28;20075;-55
2022/04/06 06:12:59;;;;;;;6.75;1.40;;;;;;;5.23;40.71;99800.47;5024344;28;20389;-55
2022/04/06 06:15:30;;;;;;;3.72;1.58;;;;;;;5.27;42.15;99801.34;5025108;28;20048;-55
2022/04/06 06:18:01;;;;;;;4.15;1.70;;;;;;;5.03;41.84;99786.72;5024812;28;20068;-53
2022/04/06 06:20:31;;;;;;;4.28;1.60;;;;;;;4.88;43.12;99800.53;5024383;28;20759;-56
2022/04/06 06:23:02;;;;;;;4.95;2.13;;;;;;;4.81;43.15;99793.63;5025253;28;20053;-55
2022/04/06 06:25:35;;;;;;;4.10;1.60;;;;;;;4.68;39.24;99797.97;5025218;28;20044;-55
2022/04/06 06:28:06;;;;;;;5.68;1.60;;;;;;;4.61;37.29;99799.66;5023211;28;20061;-53
2022/04/06 06:30:36;;;;;;;5.53;1.80;;;;;;;4.53;38.44;99798.81;5024517;28;20136;-53
2022/04/06 06:33:07;;;;;;;9.98;3.58;;;;;;;3.94;39.02;99698.75;5024513;28;20062;-54
2022/04/06 06:35:38;;;;;;;11.90;3.47;;;;;;;4.60;40.15;99800.53;5024914;28;20129;-51
2022/04/06 06:38:11;;;;;;;5.28;1.60;;;;;;;4.32;38.25;99766.91;5024776;28;20049;-53
2022/04/06 06:40:43;;;;;;;3.17;1.58;;;;;;;4.38;38.04;99794.50;5024900;28;20063;-54
2022/04/06 06:43:14;;;;;;;2.88;1.70;;;;;;;4.20;37.55;99805.66;5025016;28;20061;-53
2022/04/06 06:45:45;;;;;;;10.85;2.20;;;;;;;4.07;39.26;99812.53;5024391;28;20061;-52
2022/04/06 06:48:16;;;;;;;25.00;2.15;;;;;;;4.05;39.86;99810.81;5024744;28;20240;-51
2022/04/06 06:50:46;;;;;;;10.77;2.13;;;;;;;4.05;39.47;99811.66;5024663;28;20121;-54
2022/04/06 06:53:17;;;;;;;4.07;1.67;;;;;;;3.93;38.26;99811.63;5024766;28;20087;-55
2022/04/06 06:55:49;;;;;;;13.73;2.45;;;;;;;3.75;38.01;99811.56;5024685;28;20053;-53
2022/04/06 06:58:20;;;;;;;27.23;2.58;;;;;;;3.64;37.65;99829.59;5024748;28;20264;-53
2022/04/06 07:00:51;;;;;;;13.90;1.92;;;;;;;3.62;37.71;99826.13;5024150;28;20054;-55
2022/04/06 07:03:22;;;;;;;6.20;2.85;;;;;;;3.62;40.81;99831.28;5024080;28;20045;-53
2022/04/06 07:05:53;;;;;;;38.90;3.60;;;;;;;3.71;39.34;99836.50;5024364;28;20296;-55
2022/04/06 07:08:24;;;;;;;9.50;2.03;;;;;;;3.64;40.26;99845.09;5024145;28;20269;-55
2022/04/06 07:10:57;;;;;;;34.03;2.70;;;;;;;3.48;39.78;99832.97;5024234;28;20079;-52
2022/04/06 07:13:29;;;;;;;28.80;2.90;;;;;;;3.42;40.24;99845.00;5024464;28;20092;-52
2022/04/06 07:16:00;;;;;;;16.08;2.10;;;;;;;3.38;39.43;99848.41;5024484;28;20061;-54
2022/04/06 07:18:31;;;;;;;6.63;1.80;;;;;;;3.31;39.92;99843.19;5024261;28;20065;-55
2022/04/06 07:21:03;;;;;;;4.90;1.60;;;;;;;3.23;40.22;99853.47;5024626;28;20152;-55
2022/04/06 07:23:33;;;;;;;8.38;2.00;;;;;;;3.10;38.84;99851.66;5023759;28;20049;-53
2022/04/06 07:26:06;;;;;;;8.57;1.65;;;;;;;3.08;39.21;99853.38;5024337;28;20383;-54
2022/04/06 07:28:36;;;;;;;7.03;1.90;;;;;;;3.01;39.31;99863.63;5023795;28;20050;-55
2022/04/06 07:31:07;;;;;;;4.53;1.80;;;;;;;2.84;40.82;99854.88;5020679;28;20056;-53
2022/04/06 07:33:38;;;;;;;4.70;1.70;;;;;;;2.86;41.23;99857.50;5023710;28;20243;-53
2022/04/06 07:36:09;;;;;;;12.27;2.67;;;;;;;2.69;39.17;99862.50;5024184;28;20228;-53
2022/04/06 07:38:40;;;;;;;4.40;1.90;;;;;;;2.77;40.26;99868.59;5023919;28;20147;-55
2022/04/06 07:41:12;;;;;;;6.00;1.90;;;;;;;2.78;41.24;99867.75;5023919;28;20057;-54
2022/04/06 07:43:44;;;;;;;16.98;2.80;;;;;;;2.81;40.64;99870.34;5023905;28;20053;-55
2022/04/06 07:46:15;;;;;;;14.90;2.92;;;;;;;2.81;40.28;99870.34;5023807;28;20053;-53
2022/04/06 07:48:46;;;;;;;12.70;1.70;;;;;;;2.74;40.75;99878.88;5024073;28;20291;-53
2022/04/06 07:51:16;;;;;;;4.78;1.90;;;;;;;2.52;40.37;99880.38;5023867;28;20263;-55
2022/04/06 07:53:47;;;;;;;6.22;2.08;;;;;;;2.38;40.10;99875.97;5023937;28;20084;-51
2022/04/06 07:56:23;;;;;;;2.97;1.77;;;;;;;2.14;40.96;99840.47;5023898;28;20289;-53
2022/04/06 07:58:53;;;;;;;5.32;2.00;;;;;;;2.16;40.96;99868.84;5023512;28;20386;-53
2022/04/06 08:01:24;;;;;;;2.78;1.63;;;;;;;2.25;41.89;99883.56;5023981;28;20819;-53
2022/04/06 08:03:55;;;;;;;4.22;1.75;;;;;;;2.27;42.24;99887.00;5023571;28;20221;-53
2022/04/06 08:06:26;;;;;;;10.38;2.10;;;;;;;2.23;41.32;99880.09;5023908;28;20069;-54
2022/04/06 08:08:56;;;;;;;4.97;1.90;;;;;;;2.25;42.56;99893.88;5023501;28;20072;-53
2022/04/06 08:11:29;;;;;;;4.03;1.80;;;;;;;2.26;41.56;99893.00;5023633;28;20093;-57
2022/04/06 08:14:00;;;;;;;4.45;1.67;;;;;;;1.72;42.25;99809.91;5023796;28;20233;-53
2022/04/06 08:16:30;;;;;;;6.60;2.47;;;;;;;2.15;40.91;99893.75;5023738;28;20088;-55
2022/04/06 08:19:01;;;;;;;3.47;1.70;;;;;;;2.06;41.03;99914.25;5023902;28;20042;-57
2022/04/06 08:21:49;;;;;;;5.15;1.67;;;;;;;1.97;41.10;99903.81;5023585;28;20080;-56
2022/04/06 08:24:30;;;;;;;5.05;1.70;;;;;;;1.65;40.62;99893.97;5023386;28;20073;-55
2022/04/06 08:27:02;;;;;;;4.63;2.47;;;;;;;1.73;41.73;99920.72;5023498;28;20280;-54
2022/04/06 08:30:00;;;;;;;12.73;2.10;;;;;;;1.68;42.39;99922.34;5023936;28;20046;-52
2022/04/06 08:33:22;;;;;;;3.92;1.98;;;;;;;0.97;42.82;99801.19;5023353;28;20101;-54
2022/04/06 08:45:03;;;;;;;5.68;2.03;;;;;;;1.25;44.62;99937.16;5027195;28;20045;-53
2022/04/06 08:47:34;;;;;;;23.05;3.15;;;;;;;1.20;44.73;99933.66;5026706;28;20059;-56
2022/04/06 08:50:06;;;;;;;5.75;1.90;;;;;;;1.13;44.00;99936.97;5026499;28;20045;-55
2022/04/06 08:52:38;;;;;;;16.33;2.00;;;;;;;1.01;44.20;99936.75;5026927;28;20046;-55
2022/04/06 08:55:28;;;;;;;4.93;1.70;;;;;;;0.94;44.95;99934.91;5017218;28;20214;-54
2022/04/06 08:58:00;;;;;;;2.80;1.63;;;;;;;0.63;45.20;99900.94;5026884;28;20420;-53
2022/04/06 09:00:32;;;;;;;6.10;1.75;;;;;;;0.77;45.15;99938.03;5026774;28;20349;-54
2022/04/06 09:03:03;;;;;;;8.40;2.20;;;;;;;0.48;44.75;99888.69;5026646;28;20081;-56
2022/04/06 09:05:34;;;;;;;3.33;1.80;;;;;;;0.82;45.30;99951.88;5026441;28;20053;-56
2022/04/06 09:08:06;;;;;;;3.65;1.70;;;;;;;0.77;44.56;99952.63;5026599;28;20139;-54
2022/04/06 09:10:42;;;;;;;2.92;1.88;;;;;;;0.72;45.53;99949.94;5026398;28;20208;-57
2022/04/06 09:13:15;;;;;;;4.72;2.60;;;;;;;0.62;45.69;99950.63;5026113;28;20046;-55
2022/04/06 09:15:50;;;;;;;2.60;1.70;;;;;;;0.57;45.47;99959.97;5016624;28;20068;-55
2022/04/06 09:18:24;;;;;;;7.25;2.20;;;;;;;0.50;46.24;99958.09;5026429;28;20049;-56
2022/04/06 09:21:01;;;;;;;4.15;1.88;;;;;;;0.47;46.57;99963.19;5016684;28;20229;-55
2022/04/06 09:23:32;;;;;;;3.97;2.00;;;;;;;0.34;46.40;99957.81;5026563;28;20112;-54
2022/04/06 09:26:05;;;;;;;6.55;2.50;;;;;;;0.36;46.86;99968.13;5025959;28;20348;-55
2022/04/06 09:28:43;;;;;;;3.05;1.90;;;;;;;0.31;46.63;99968.03;5026682;28;20065;-54
2022/04/06 09:31:17;;;;;;;8.07;2.80;;;;;;;0.40;45.94;99978.50;5025657;28;20057;-55
2022/04/06 09:33:58;;;;;;;6.53;2.35;;;;;;;0.43;45.88;99983.69;5025562;28;20402;-56
2022/04/06 09:36:30;;;;;;;6.60;2.17;;;;;;;0.43;46.18;99983.69;5025099;28;20057;-55
2022/04/06 09:39:01;;;;;;;13.52;2.05;;;;;;;0.36;46.97;99976.69;5025267;28;20062;-54
2022/04/06 09:41:32;;;;;;;9.68;1.70;;;;;;;0.40;46.85;99986.22;5024827;28;20108;-54
2022/04/06 09:47:38;;;;;;;2.42;1.73;;;;;;;0.28;47.41;99982.53;5024990;28;20647;-56
2022/04/06 09:50:19;;;;;;;22.05;2.40;;;;;;;0.32;47.45;100000.59;5025024;28;20084;-54
2022/04/06 09:52:52;;;;;;;8.65;2.10;;;;;;;0.35;47.50;99992.06;5024998;28;20111;-54
2022/04/06 09:55:24;;;;;;;6.07;2.00;;;;;;;0.26;48.22;99990.19;5024550;28;20050;-52
2022/04/06 09:57:58;;;;;;;6.28;2.33;;;;;;;0.32;48.84;100016.00;5024887;28;20117;-56
2022/04/06 10:00:30;;;;;;;3.72;1.70;;;;;;;0.23;49.09;100010.69;5024638;28;20080;-55
2022/04/06 10:03:05;;;;;;;8.75;2.45;;;;;;;0.34;48.99;100024.63;5024889;28;20435;-56
2022/04/06 10:05:38;;;;;;;14.43;2.60;;;;;;;-0.11;48.85;99948.31;5024662;28;20081;-55
2022/04/06 10:08:11;;;;;;;10.82;2.20;;;;;;;0.30;49.22;100028.00;5024392;28;20061;-56
2022/04/06 10:10:42;;;;;;;11.30;2.83;;;;;;;0.23;49.23;100026.13;5024271;28;20053;-52
2022/04/06 10:13:13;;;;;;;5.85;2.45;;;;;;;0.29;49.01;100025.38;5024385;28;20052;-55
2022/04/06 10:16:04;;;;;;;3.80;1.98;;;;;;;0.30;49.71;100035.69;5023788;28;20997;-54
2022/04/06 10:18:37;;;;;;;4.78;2.08;;;;;;;0.29;49.57;100039.09;5024567;28;20248;-52
2022/04/06 10:21:14;;;;;;;3.03;1.92;;;;;;;0.29;50.17;100039.09;5024498;28;20061;-52
2022/04/06 10:23:58;;;;;;;4.68;2.70;;;;;;;-0.03;50.35;99993.00;5024593;28;20135;-53
2022/04/06 10:26:41;;;;;;;12.50;2.47;;;;;;;-0.09;50.31;99998.00;5024613;28;20053;-53
2022/04/06 10:29:12;;;;;;;4.38;2.20;;;;;;;0.29;50.37;100059.66;5024602;28;20265;-53
2022/04/06 10:31:46;;;;;;;4.95;2.17;;;;;;;0.30;50.20;100058.84;5024673;28;20054;-52
2022/04/06 10:34:28;;;;;;;11.15;2.55;;;;;;;0.27;50.37;100063.88;5024579;28;20061;-53
2022/04/06 10:37:11;;;;;;;5.45;2.55;;;;;;;0.25;50.92;100055.28;5025302;28;20050;-55
2022/04/06 10:40:00;;;;;;;5.60;2.55;;;;;;;0.29;51.25;100069.06;5024806;28;20230;-53
2022/04/06 10:42:35;;;;;;;6.45;2.50;;;;;;;-0.35;51.46;99968.31;5024720;28;20089;-52
2022/04/06 10:45:06;;;;;;;6.95;2.45;;;;;;;0.20;51.57;100078.31;5024776;28;20104;-53
2022/04/06 10:47:37;;;;;;;25.90;3.25;;;;;;;0.22;51.22;100080.91;5024718;28;20060;-55
2022/04/06 10:50:25;;;;;;;9.93;2.60;;;;;;;0.29;51.59;100075.06;5024152;28;20092;-55
2022/04/06 10:53:31;;;;;;;9.63;2.65;;;;;;;0.28;51.19;100075.91;5024161;28;20116;-53
2022/04/06 10:56:06;;;;;;;4.45;2.42;;;;;;;0.05;52.09;100046.25;5025063;28;20163;-52
2022/04/06 10:59:11;;;;;;;14.80;2.80;;;;;;;0.19;52.20;100083.41;5023593;28;20053;-55
2022/04/06 11:01:45;;;;;;;16.55;2.88;;;;;;;0.19;52.49;100076.56;5023957;28;20108;-54
2022/04/06 11:04:20;;;;;;;7.10;2.65;;;;;;;0.16;52.78;100085.91;5024505;28;20159;-54
2022/04/06 11:06:56;;;;;;;5.82;2.20;;;;;;;0.16;52.58;100085.91;5024186;28;20085;-54
2022/04/06 11:12:17;;;;;;;6.75;2.63;;;;;;;0.11;52.31;100082.38;5023916;28;20061;-55
2022/04/06 11:14:49;;;;;;;12.25;2.90;;;;;;;-0.03;52.59;100064.91;5023943;28;20077;-55
2022/04/06 11:17:42;;;;;;;6.35;2.90;;;;;;;0.14;52.72;100097.84;5023942;28;20072;-57
2022/04/06 11:20:15;;;;;;;10.88;3.10;;;;;;;-0.28;52.65;100013.84;5023328;28;20049;-55
2022/04/06 11:22:53;;;;;;;5.15;2.92;;;;;;;0.20;52.96;100097.97;5024201;28;20068;-53
2022/04/06 11:25:25;;;;;;;8.18;2.80;;;;;;;0.10;52.55;100081.50;5024397;28;20077;-53
2022/04/06 11:28:07;;;;;;;11.48;3.17;;;;;;;0.13;52.33;100085.84;5024168;28;20061;-53
2022/04/06 11:30:43;;;;;;;10.05;3.08;;;;;;;0.22;52.65;100096.31;5024060;28;20057;-55
2022/04/06 11:33:14;;;;;;;5.28;2.67;;;;;;;0.22;52.65;100101.47;5023532;28;20335;-54
2022/04/06 11:35:45;;;;;;;13.63;3.67;;;;;;;0.35;52.82;100092.31;5023979;28;20081;-55
2022/04/06 11:38:17;;;;;;;10.90;4.75;;;;;;;0.30;52.85;100104.19;5023703;28;20145;-54
2022/04/06 11:40:47;;;;;;;10.82;4.30;;;;;;;0.25;53.33;100101.56;5024189;28;20065;-51
2022/04/06 11:43:18;;;;;;;8.77;3.60;;;;;;;0.21;53.70;100097.16;5023997;28;20058;-53
2022/04/06 11:45:51;;;;;;;21.00;8.00;;;;;;;0.24;53.96;100102.38;5023827;28;20054;-53
2022/04/06 11:48:21;;;;;;;9.50;4.50;;;;;;;0.26;54.08;100108.41;5023962;28;20077;-52
2022/04/06 11:50:52;;;;;;;34.13;15.30;;;;;;;-0.03;54.19;100059.78;5023765;28;20068;-53
2022/04/06 11:53:28;;;;;;;17.75;7.13;;;;;;;0.30;53.94;100109.34;5023808;28;20126;-53
2022/04/06 11:56:01;;;;;;;10.77;4.32;;;;;;;0.30;54.09;100112.81;5024358;28;20067;-54
2022/04/06 11:58:33;;;;;;;21.08;10.65;;;;;;;0.35;53.90;100113.78;5024309;28;20078;-54
2022/04/06 12:01:06;;;;;;;7.88;3.45;;;;;;;0.37;54.09;100112.06;5023988;28;20130;-54
2022/04/06 12:03:39;;;;;;;10.25;4.22;;;;;;;0.39;53.83;100114.69;5023393;28;20085;-53
2022/04/06 12:06:10;;;;;;;12.10;4.43;;;;;;;0.17;53.96;100061.94;5023725;28;20061;-55
2022/04/06 12:08:43;;;;;;;15.98;5.35;;;;;;;0.37;54.23;100122.34;5023308;28;20046;-53
2022/04/06 12:11:14;;;;;;;8.90;4.47;;;;;;;0.25;53.96;100119.53;5026665;28;20124;-55
2022/04/06 12:13:45;;;;;;;11.48;4.10;;;;;;;0.21;54.20;100121.16;5027778;28;20312;-54
2022/04/06 12:16:16;;;;;;;14.88;4.93;;;;;;;0.29;54.61;100118.75;5027432;28;20324;-52
2022/04/06 12:18:47;;;;;;;21.00;8.77;;;;;;;-0.17;54.90;100053.47;5027463;28;20295;-55
2022/04/06 12:21:24;;;;;;;15.45;5.97;;;;;;;0.26;55.15;100123.84;5027455;28;20060;-52
2022/04/06 12:23:57;;;;;;;9.88;4.60;;;;;;;0.33;54.84;100115.44;5027143;28;20108;-50
2022/04/06 12:26:39;;;;;;;15.55;5.85;;;;;;;0.31;55.22;100109.38;5026797;28;20371;-53